createdAt,value
2023-02-06T00:00:49.000Z,4.57
2023-02-06T00:03:16.275Z,4.35
2023-02-06T00:05:43.192Z,4.15
2023-02-06T00:08:11.562Z,4.10
2023-02-06T00:10:38.296Z,4.32
2023-02-06T00:13:05.031Z,4.78
2023-02-06T00:15:33.009Z,4.68
2023-02-06T00:17:59.712Z,4.53
2023-02-06T00:20:26.374Z,3.92
2023-02-06T00:22:53.205Z,4.70
2023-02-06T00:25:19.961Z,4.95
2023-02-06T00:27:48.257Z,4.47
2023-02-06T00:30:15.652Z,4.72
2023-02-06T00:32:42.417Z,4.70
2023-02-06T00:35:10.236Z,6.00
2023-02-06T00:37:36.976Z,5.05
2023-02-06T00:40:03.898Z,7.28
2023-02-06T00:42:30.705Z,5.65
2023-02-06T00:44:57.431Z,5.85
2023-02-06T00:47:24.165Z,5.57
2023-02-06T00:49:50.877Z,5.47
2023-02-06T00:52:17.601Z,5.63
2023-02-06T00:54:46.832Z,6.22
2023-02-06T00:57:13.806Z,4.85
2023-02-06T00:59:40.505Z,4.03
2023-02-06T01:02:07.342Z,5.57
2023-02-06T01:04:35.179Z,4.32
2023-02-06T01:07:02.266Z,5.05
2023-02-06T01:09:28.988Z,5.10
2023-02-06T01:11:56.205Z,5.22
2023-02-06T01:14:22.893Z,4.88
2023-02-06T01:16:49.656Z,5.38
2023-02-06T01:19:16.371Z,4.15
2023-02-06T01:21:43.161Z,4.97
2023-02-06T01:24:09.857Z,5.20
2023-02-06T01:26:36.537Z,4.30
2023-02-06T01:29:04.020Z,4.00
2023-02-06T01:31:31.306Z,5.28
2023-02-06T01:34:00.171Z,5.25
2023-02-06T01:36:27.711Z,5.38
2023-02-06T01:38:55.949Z,5.43
2023-02-06T01:41:23.788Z,5.47
2023-02-06T01:44:16.641Z,5.70
2023-02-06T01:46:46.566Z,5.35
2023-02-06T01:49:22.334Z,5.20
2023-02-06T01:51:50.370Z,5.95
2023-02-06T01:54:17.572Z,5.15
2023-02-06T01:56:51.360Z,5.53
2023-02-06T01:59:18.100Z,5.55
2023-02-06T02:01:45.350Z,6.10
2023-02-06T02:04:17.780Z,5.28
2023-02-06T02:06:50.415Z,5.55
2023-02-06T02:09:19.563Z,4.70
2023-02-06T02:11:49.455Z,5.00
2023-02-06T02:14:18.344Z,5.13
2023-02-06T02:17:07.813Z,4.38
2023-02-06T02:19:46.769Z,5.03
2023-02-06T02:22:32.396Z,4.85
2023-02-06T02:25:30.242Z,5.60
2023-02-06T02:28:21.162Z,5.38
2023-02-06T02:31:19.848Z,4.85
2023-02-06T02:34:01.606Z,5.55
2023-02-06T02:36:44.035Z,6.50
2023-02-06T02:39:22.945Z,5.47
2023-02-06T02:41:59.772Z,5.95
2023-02-06T02:44:34.722Z,5.50
2023-02-06T02:47:08.701Z,6.40
2023-02-06T02:49:37.909Z,5.97
2023-02-06T02:52:05.376Z,6.35
2023-02-06T02:54:32.497Z,6.28
2023-02-06T02:57:07.904Z,5.53
2023-02-06T02:59:41.618Z,6.07
2023-02-06T03:02:17.947Z,6.68
2023-02-06T03:05:09.136Z,6.60
2023-02-06T03:07:58.821Z,6.05
2023-02-06T03:10:26.768Z,6.20
2023-02-06T03:13:23.130Z,5.55
2023-02-06T03:16:20.727Z,6.47
2023-02-06T03:19:15.112Z,7.22
2023-02-06T03:21:42.830Z,6.80
2023-02-06T03:24:31.731Z,6.07
2023-02-06T03:27:02.691Z,6.55
2023-02-06T03:29:32.935Z,6.53
2023-02-06T03:32:13.523Z,6.93
2023-02-06T03:35:07.217Z,6.35
2023-02-06T03:37:35.159Z,6.15
2023-02-06T03:40:03.335Z,7.30
2023-02-06T03:42:31.500Z,7.28
2023-02-06T03:45:04.408Z,7.07
2023-02-06T03:47:32.851Z,6.72
2023-02-06T03:50:03.646Z,7.50
2023-02-06T03:52:43.947Z,6.78
2023-02-06T03:55:18.834Z,5.93
2023-02-06T03:57:56.286Z,7.43
2023-02-06T04:00:25.499Z,6.25
2023-02-06T04:02:56.220Z,6.70
2023-02-06T04:05:23.333Z,6.70
2023-02-06T04:07:51.239Z,8.18
2023-02-06T04:10:18.050Z,7.82
2023-02-06T04:12:44.848Z,6.88
2023-02-06T04:15:13.019Z,7.85
2023-02-06T04:17:53.477Z,6.50
2023-02-06T04:20:25.690Z,7.75
2023-02-06T04:23:00.208Z,7.00
2023-02-06T04:25:30.353Z,6.72
2023-02-06T04:27:57.152Z,7.28
2023-02-06T04:30:23.932Z,7.90
2023-02-06T04:32:51.032Z,9.23
2023-02-06T04:35:18.141Z,9.13
2023-02-06T04:37:46.442Z,7.95
2023-02-06T04:40:13.335Z,9.63
2023-02-06T04:42:41.226Z,9.93
2023-02-06T04:45:08.435Z,9.50
2023-02-06T04:47:37.464Z,9.02
2023-02-06T04:50:05.221Z,9.60
2023-02-06T04:52:33.155Z,9.35
2023-02-06T04:54:59.875Z,10.00
2023-02-06T04:57:26.937Z,10.27
2023-02-06T04:59:56.236Z,9.82
2023-02-06T05:02:24.066Z,10.35
2023-02-06T05:04:52.762Z,11.48
2023-02-06T05:07:19.599Z,10.93
2023-02-06T05:09:46.482Z,10.77
2023-02-06T05:12:14.331Z,12.50
2023-02-06T05:14:42.861Z,12.18
2023-02-06T05:17:11.620Z,10.60
2023-02-06T05:19:43.150Z,13.02
2023-02-06T05:22:13.097Z,11.85
2023-02-06T05:24:39.787Z,13.27
2023-02-06T05:27:06.486Z,13.15
2023-02-06T05:29:33.191Z,10.77
2023-02-06T05:31:59.919Z,12.05
2023-02-06T05:34:26.887Z,12.02
2023-02-06T05:36:53.596Z,11.43
2023-02-06T05:39:21.629Z,11.98
2023-02-06T05:41:49.668Z,10.60
2023-02-06T05:44:16.402Z,12.45
2023-02-06T05:46:44.677Z,11.88
2023-02-06T05:49:11.446Z,13.15
2023-02-06T05:51:38.228Z,12.50
2023-02-06T05:54:04.983Z,13.55
2023-02-06T05:56:31.706Z,12.32
2023-02-06T05:58:59.767Z,14.13
2023-02-06T06:01:29.653Z,13.55
2023-02-06T06:03:58.094Z,15.18
2023-02-06T06:06:24.948Z,13.52
2023-02-06T06:08:51.677Z,15.18
2023-02-06T06:11:18.856Z,14.82
2023-02-06T06:13:45.677Z,14.95
2023-02-06T06:16:12.495Z,13.93
2023-02-06T06:18:40.139Z,13.63
2023-02-06T06:21:14.360Z,15.35
2023-02-06T06:23:41.048Z,14.70
2023-02-06T06:26:07.825Z,16.05
2023-02-06T06:28:36.118Z,15.07
2023-02-06T06:31:05.451Z,14.38
2023-02-06T06:33:33.574Z,14.50
2023-02-06T06:36:02.945Z,14.07
2023-02-06T06:38:29.955Z,13.45
2023-02-06T06:40:57.939Z,15.20
2023-02-06T06:43:25.104Z,14.63
2023-02-06T06:45:52.126Z,15.75
2023-02-06T06:48:18.991Z,14.50
2023-02-06T06:50:45.673Z,15.45
2023-02-06T06:53:13.405Z,16.40
2023-02-06T06:55:41.466Z,13.85
2023-02-06T06:58:08.466Z,15.88
2023-02-06T07:00:35.236Z,16.73
2023-02-06T07:03:01.989Z,15.90
2023-02-06T07:05:29.879Z,15.43
2023-02-06T07:07:56.593Z,16.98
2023-02-06T07:10:23.376Z,17.48
2023-02-06T07:12:55.753Z,17.85
2023-02-06T07:15:26.605Z,15.95
2023-02-06T07:17:55.215Z,15.43
2023-02-06T07:20:23.240Z,16.63
2023-02-06T07:22:50.370Z,16.55
2023-02-06T07:25:18.353Z,15.85
2023-02-06T07:27:45.130Z,16.67
2023-02-06T07:30:12.471Z,16.73
2023-02-06T07:32:40.671Z,15.13
2023-02-06T07:35:08.271Z,16.27
2023-02-06T07:37:35.231Z,17.10
2023-02-06T07:40:05.642Z,16.02
2023-02-06T07:42:34.053Z,16.27
2023-02-06T07:45:01.094Z,16.70
2023-02-06T07:47:28.971Z,16.63
2023-02-06T07:49:57.049Z,16.00
2023-02-06T07:52:25.820Z,15.82
2023-02-06T07:54:53.533Z,18.15
2023-02-06T07:57:20.311Z,18.13
2023-02-06T07:59:47.147Z,14.70
2023-02-06T08:02:14.452Z,18.15
2023-02-06T08:04:41.440Z,16.17
2023-02-06T08:07:18.180Z,17.38
2023-02-06T08:09:46.646Z,18.15
2023-02-06T08:12:13.503Z,16.88
2023-02-06T08:14:40.257Z,18.55
2023-02-06T08:17:09.275Z,19.92
2023-02-06T08:19:37.013Z,19.80
2023-02-06T08:22:03.922Z,19.38
2023-02-06T08:24:30.769Z,20.95
2023-02-06T08:26:58.717Z,19.27
2023-02-06T08:29:25.784Z,19.98
2023-02-06T08:31:54.170Z,20.55
2023-02-06T08:34:20.893Z,21.48
2023-02-06T08:36:49.967Z,20.65
2023-02-06T08:39:18.194Z,22.38
2023-02-06T08:41:45.286Z,22.08
2023-02-06T08:44:16.568Z,22.25
2023-02-06T08:46:52.327Z,22.08
2023-02-06T08:49:23.310Z,23.42
2023-02-06T08:51:53.622Z,20.45
2023-02-06T08:54:27.456Z,23.15
2023-02-06T08:56:56.820Z,20.27
2023-02-06T08:59:23.683Z,22.98
2023-02-06T09:01:52.121Z,22.33
2023-02-06T09:04:55.574Z,22.77
2023-02-06T09:07:22.567Z,23.45
2023-02-06T09:09:49.551Z,22.52
2023-02-06T09:12:16.795Z,21.23
2023-02-06T09:14:45.987Z,21.08
2023-02-06T09:17:15.379Z,19.50
2023-02-06T09:19:43.128Z,23.10
2023-02-06T09:22:09.888Z,20.65
2023-02-06T09:24:40.686Z,22.17
2023-02-06T09:27:07.457Z,22.70
2023-02-06T09:29:34.294Z,22.58
2023-02-06T09:32:01.127Z,21.80
2023-02-06T09:34:28.507Z,23.67
2023-02-06T09:36:56.875Z,23.33
2023-02-06T09:39:24.310Z,19.25
2023-02-06T09:41:56.722Z,22.42
2023-02-06T09:44:34.292Z,19.20
2023-02-06T09:47:27.677Z,19.40
2023-02-06T09:50:16.429Z,18.42
2023-02-06T09:52:58.181Z,16.85
2023-02-06T09:55:45.311Z,15.93
2023-02-06T09:58:22.582Z,16.00
2023-02-06T10:01:00.669Z,16.63
2023-02-06T10:04:10.596Z,15.70
2023-02-06T10:07:01.592Z,17.10
2023-02-06T10:10:01.639Z,14.40
2023-02-06T10:13:13.177Z,17.52
2023-02-06T10:15:56.555Z,13.88
2023-02-06T10:18:36.345Z,15.65
2023-02-06T10:21:25.498Z,15.02
2023-02-06T10:24:11.160Z,15.48
2023-02-06T10:26:39.961Z,14.50
2023-02-06T10:29:18.095Z,14.40
2023-02-06T10:32:21.186Z,14.93
2023-02-06T10:35:03.631Z,12.15
2023-02-06T10:37:53.506Z,12.25
2023-02-06T10:40:58.082Z,12.38
2023-02-06T10:43:41.622Z,9.82
2023-02-06T10:46:32.919Z,11.07
2023-02-06T10:49:15.635Z,12.05
2023-02-06T10:51:45.389Z,12.15
2023-02-06T10:54:18.459Z,10.30
2023-02-06T10:56:48.053Z,11.23
2023-02-06T10:59:31.768Z,11.07
2023-02-06T11:02:12.160Z,11.05
2023-02-06T11:04:46.841Z,10.63
2023-02-06T11:07:20.768Z,12.05
2023-02-06T11:09:47.560Z,9.27
2023-02-06T11:12:31.108Z,9.55
2023-02-06T11:15:05.466Z,10.30
2023-02-06T11:17:33.224Z,11.15
2023-02-06T11:20:16.990Z,10.43
2023-02-06T11:22:52.716Z,8.80
2023-02-06T11:25:33.610Z,11.20
2023-02-06T11:28:01.076Z,11.30
2023-02-06T11:30:35.118Z,11.75
2023-02-06T11:35:40.201Z,11.60
2023-02-06T11:38:17.034Z,11.68
2023-02-06T11:40:54.615Z,10.13
2023-02-06T11:43:24.918Z,10.52
2023-02-06T11:46:24.548Z,10.63
2023-02-06T11:49:01.726Z,9.70
2023-02-06T11:51:49.539Z,9.82
2023-02-06T11:54:36.604Z,10.50
2023-02-06T11:57:24.368Z,11.10
2023-02-06T11:59:56.708Z,9.48
2023-02-06T12:02:32.977Z,11.27
2023-02-06T12:05:16.804Z,10.98
2023-02-06T12:08:22.499Z,11.20
2023-02-06T12:11:01.319Z,10.77
2023-02-06T12:13:34.921Z,12.07
2023-02-06T12:16:05.179Z,11.73
2023-02-06T12:18:44.442Z,11.70
2023-02-06T12:21:24.373Z,11.88
2023-02-06T12:24:02.374Z,11.48
2023-02-06T12:26:31.773Z,12.40
2023-02-06T12:29:24.934Z,12.05
2023-02-06T12:32:18.363Z,12.35
2023-02-06T12:34:57.403Z,11.80
2023-02-06T12:37:45.091Z,11.65
2023-02-06T12:40:39.177Z,11.98
2023-02-06T12:43:12.773Z,10.93
2023-02-06T12:46:05.980Z,13.27
2023-02-06T12:48:41.526Z,13.65
2023-02-06T12:51:19.602Z,12.75
2023-02-06T12:53:58.772Z,13.70
2023-02-06T12:56:45.163Z,14.27
2023-02-06T12:59:56.978Z,12.65
2023-02-06T13:05:34.226Z,15.43
2023-02-06T13:08:09.453Z,17.08
2023-02-06T13:17:00.831Z,13.05
2023-02-06T13:19:36.965Z,14.40
2023-02-06T13:22:09.962Z,12.45
2023-02-06T13:24:45.190Z,13.05
2023-02-06T13:27:24.779Z,14.70
2023-02-06T13:29:54.314Z,13.25
2023-02-06T13:32:23.937Z,12.98
2023-02-06T13:35:02.569Z,13.00
2023-02-06T13:37:55.880Z,13.02
2023-02-06T13:40:26.648Z,12.60
2023-02-06T13:42:59.328Z,12.18
2023-02-06T13:45:29.534Z,13.90
2023-02-06T13:48:05.338Z,13.88
2023-02-06T13:50:46.929Z,12.55
2023-02-06T13:53:35.587Z,10.88
2023-02-06T13:56:39.416Z,11.90
2023-02-06T13:59:16.326Z,12.05
2023-02-06T14:01:45.214Z,12.63
2023-02-06T14:04:24.884Z,11.38
2023-02-06T14:07:12.330Z,13.77
2023-02-06T14:09:59.918Z,14.00
2023-02-06T14:12:44.895Z,13.05
2023-02-06T14:15:42.225Z,14.60
2023-02-06T14:18:32.906Z,13.55
2023-02-06T14:21:44.272Z,13.15
2023-02-06T14:24:29.556Z,12.75
2023-02-06T14:27:14.475Z,13.15
2023-02-06T14:30:00.123Z,13.63
2023-02-06T14:32:43.311Z,13.10
2023-02-06T14:35:34.065Z,14.43
2023-02-06T14:38:28.506Z,11.80
2023-02-06T14:40:57.004Z,14.10
2023-02-06T14:43:28.335Z,12.80
2023-02-06T14:46:07.142Z,13.05
2023-02-06T14:48:44.182Z,11.68
2023-02-06T14:51:34.099Z,12.23
2023-02-06T14:54:27.945Z,12.90
2023-02-06T14:57:01.085Z,11.77
2023-02-06T14:59:28.154Z,12.27
2023-02-06T15:01:57.077Z,12.07
2023-02-06T15:04:31.032Z,13.98
2023-02-06T15:07:03.592Z,12.10
2023-02-06T15:09:30.520Z,11.45
2023-02-06T15:12:00.520Z,12.25
2023-02-06T15:14:30.565Z,13.38
2023-02-06T15:16:59.771Z,13.15
2023-02-06T15:19:32.449Z,11.05
2023-02-06T15:22:10.127Z,12.75
2023-02-06T15:25:02.872Z,13.55
2023-02-06T15:27:32.298Z,13.85
2023-02-06T15:30:00.554Z,11.75
2023-02-06T15:32:38.159Z,13.52
2023-02-06T15:35:22.799Z,12.45
2023-02-06T15:37:50.869Z,11.15
2023-02-06T15:40:23.967Z,12.32
2023-02-06T15:42:51.437Z,11.18
2023-02-06T15:45:26.083Z,11.10
2023-02-06T15:47:54.363Z,11.63
2023-02-06T15:50:24.486Z,11.45
2023-02-06T15:52:51.497Z,11.55
2023-02-06T15:55:31.489Z,11.07
2023-02-06T15:58:01.715Z,11.07
2023-02-06T16:00:37.266Z,10.30
2023-02-06T16:03:09.173Z,10.55
2023-02-06T16:05:40.924Z,10.48
2023-02-06T16:08:22.858Z,12.45
2023-02-06T16:10:53.186Z,10.32
2023-02-06T16:13:28.022Z,10.32
2023-02-06T16:16:21.077Z,11.00
2023-02-06T16:18:52.045Z,11.05
2023-02-06T16:21:23.958Z,12.15
2023-02-06T16:24:00.221Z,12.25
2023-02-06T16:26:30.187Z,12.65
2023-02-06T16:29:15.910Z,14.23
2023-02-06T16:31:44.474Z,14.00
2023-02-06T16:34:30.300Z,12.85
2023-02-06T16:36:57.057Z,12.68
2023-02-06T16:39:24.858Z,13.73
2023-02-06T16:41:53.370Z,14.32
2023-02-06T16:47:05.255Z,14.35
2023-02-06T16:49:32.240Z,14.50
2023-02-06T16:51:59.765Z,14.73
2023-02-06T16:54:29.574Z,14.05
2023-02-06T16:57:02.086Z,13.50
2023-02-06T16:59:28.777Z,14.25
2023-02-06T17:01:55.557Z,14.15
2023-02-06T17:04:22.269Z,14.30
2023-02-06T17:06:49.312Z,13.35
2023-02-06T17:09:18.664Z,13.77
2023-02-06T17:11:45.422Z,13.85
2023-02-06T17:14:12.161Z,17.00
2023-02-06T17:16:39.111Z,14.18
2023-02-06T17:19:05.841Z,15.68
2023-02-06T17:21:33.286Z,14.93
2023-02-06T17:24:00.332Z,15.13
2023-02-06T17:26:28.536Z,14.77
2023-02-06T17:28:55.295Z,21.30
2023-02-06T17:31:22.219Z,19.52
2023-02-06T17:33:52.076Z,15.15
2023-02-06T17:36:29.596Z,12.75
2023-02-06T17:39:00.103Z,17.10
2023-02-06T17:41:27.657Z,18.42
2023-02-06T17:43:54.442Z,21.65
2023-02-06T17:46:21.178Z,20.23
2023-02-06T17:48:48.001Z,21.42
2023-02-06T17:51:15.287Z,20.67
2023-02-06T17:53:42.096Z,18.17
2023-02-06T17:56:13.186Z,23.55
2023-02-06T17:58:43.807Z,24.40
2023-02-06T18:01:23.650Z,20.42
2023-02-06T18:03:50.664Z,17.75
2023-02-06T18:06:19.502Z,17.60
2023-02-06T18:08:47.506Z,15.68
2023-02-06T18:11:19.648Z,14.52
2023-02-06T18:13:48.529Z,13.57
2023-02-06T18:16:20.260Z,14.07
2023-02-06T18:18:48.645Z,17.90
2023-02-06T18:21:16.813Z,17.63
2023-02-06T18:23:43.572Z,15.00
2023-02-06T18:26:10.917Z,14.25
2023-02-06T18:28:40.566Z,12.48
2023-02-06T18:31:27.504Z,14.27
2023-02-06T18:33:56.264Z,16.23
2023-02-06T18:36:24.505Z,13.80
2023-02-06T18:38:52.918Z,9.98
2023-02-06T18:41:38.526Z,8.05
2023-02-06T18:44:07.762Z,6.82
2023-02-06T18:46:36.982Z,6.13
2023-02-06T18:49:04.949Z,5.05
2023-02-06T18:51:32.456Z,5.28
2023-02-06T18:53:59.664Z,5.18
2023-02-06T18:56:26.481Z,5.00
2023-02-06T18:58:54.686Z,6.03
2023-02-06T19:01:24.208Z,4.72
2023-02-06T19:03:52.303Z,4.85
2023-02-06T19:06:21.877Z,5.10
2023-02-06T19:08:49.974Z,5.82
2023-02-06T19:11:16.944Z,6.25
2023-02-06T19:13:44.620Z,6.35
2023-02-06T19:16:15.050Z,6.63
2023-02-06T19:18:44.336Z,7.45
2023-02-06T19:21:15.874Z,5.85
2023-02-06T19:23:43.795Z,5.85
2023-02-06T19:26:12.794Z,5.88
2023-02-06T19:28:41.581Z,6.53
2023-02-06T19:31:09.999Z,7.40
2023-02-06T19:33:38.420Z,5.95
2023-02-06T19:36:15.614Z,7.07
2023-02-06T19:38:43.166Z,5.25
2023-02-06T19:41:20.605Z,5.75
2023-02-06T19:43:48.192Z,6.03
2023-02-06T19:46:17.803Z,5.45
2023-02-06T19:48:47.563Z,6.05
2023-02-06T19:51:17.617Z,6.38
2023-02-06T19:53:47.676Z,6.22
2023-02-06T19:56:19.794Z,6.47
2023-02-06T19:58:48.228Z,6.95
2023-02-06T20:01:16.491Z,7.90
2023-02-06T20:03:44.962Z,7.13
2023-02-06T20:06:13.585Z,7.63
2023-02-06T20:08:43.314Z,7.20
2023-02-06T20:11:21.806Z,7.93
2023-02-06T20:13:52.287Z,7.82
2023-02-06T20:16:25.670Z,8.50
2023-02-06T20:18:53.417Z,8.30
2023-02-06T20:21:28.149Z,10.57
2023-02-06T20:24:00.223Z,9.35
2023-02-06T20:26:30.319Z,8.40
2023-02-06T20:28:57.118Z,6.65
2023-02-06T20:31:24.215Z,6.85
2023-02-06T20:33:51.330Z,7.85
2023-02-06T20:36:22.262Z,7.20
2023-02-06T20:38:50.432Z,6.55
2023-02-06T20:41:18.190Z,7.07
2023-02-06T20:43:47.880Z,6.57
2023-02-06T20:46:19.546Z,7.13
2023-02-06T20:48:52.281Z,7.05
2023-02-06T20:51:19.977Z,6.78
2023-02-06T20:53:47.147Z,6.88
2023-02-06T20:56:15.577Z,6.75
2023-02-06T20:58:43.140Z,6.70
2023-02-06T21:01:25.178Z,7.22
2023-02-06T21:03:55.593Z,7.35
2023-02-06T21:06:24.134Z,6.90
2023-02-06T21:08:52.877Z,7.20
2023-02-06T21:11:20.375Z,7.30
2023-02-06T21:13:48.136Z,7.32
2023-02-06T21:16:14.903Z,8.25
2023-02-06T21:18:42.744Z,7.93
2023-02-06T21:21:12.149Z,7.68
2023-02-06T21:23:40.744Z,7.88
2023-02-06T21:26:11.313Z,8.38
2023-02-06T21:28:39.264Z,7.97
2023-02-06T21:31:09.240Z,8.50
2023-02-06T21:33:37.178Z,7.88
2023-02-06T21:36:07.179Z,7.88
2023-02-06T21:38:35.624Z,7.72
2023-02-06T21:41:08.125Z,8.20
2023-02-06T21:43:35.185Z,7.80
2023-02-06T21:46:03.845Z,7.57
2023-02-06T21:48:31.271Z,7.72
2023-02-06T21:50:59.046Z,8.20
2023-02-06T21:53:28.362Z,7.78
2023-02-06T21:55:55.103Z,8.10
2023-02-06T21:58:21.876Z,8.60
2023-02-06T22:00:48.605Z,8.27
2023-02-06T22:03:15.781Z,7.75
2023-02-06T22:05:43.695Z,7.15
2023-02-06T22:08:11.703Z,7.05
2023-02-06T22:10:39.554Z,7.43
2023-02-06T22:13:06.550Z,6.53
2023-02-06T22:15:33.759Z,6.70
2023-02-06T22:18:00.834Z,7.10
2023-02-06T22:20:27.676Z,7.85
2023-02-06T22:22:56.285Z,6.95
2023-02-06T22:25:23.362Z,7.82
2023-02-06T22:27:51.938Z,7.88
2023-02-06T22:30:20.488Z,7.43
2023-02-06T22:32:47.576Z,7.20
2023-02-06T22:35:14.287Z,9.25
2023-02-06T22:37:43.680Z,8.48
2023-02-06T22:40:11.594Z,7.50
2023-02-06T22:42:38.281Z,8.13
2023-02-06T22:45:08.756Z,8.52
2023-02-06T22:47:35.486Z,8.35
2023-02-06T22:50:03.951Z,9.52
2023-02-06T22:52:49.241Z,9.35
2023-02-06T22:55:17.954Z,7.85
2023-02-06T22:57:46.520Z,8.00
2023-02-06T23:00:14.825Z,7.70
2023-02-06T23:02:42.768Z,6.97
2023-02-06T23:05:10.673Z,7.57
2023-02-06T23:07:38.825Z,7.80
2023-02-06T23:10:06.962Z,7.88
2023-02-06T23:12:35.034Z,7.55
2023-02-06T23:15:01.766Z,7.30
2023-02-06T23:17:29.629Z,8.65
2023-02-06T23:19:56.332Z,7.80
2023-02-06T23:22:24.153Z,7.55
2023-02-06T23:24:51.672Z,9.10
2023-02-06T23:27:19.736Z,8.57
2023-02-06T23:29:46.621Z,8.75
2023-02-06T23:32:15.512Z,9.35
2023-02-06T23:34:42.390Z,8.88
2023-02-06T23:37:10.483Z,7.82
2023-02-06T23:39:37.173Z,7.95
2023-02-06T23:42:04.067Z,7.63
2023-02-06T23:44:33.213Z,8.70
2023-02-06T23:47:00.000Z,8.05
2023-02-06T23:49:27.751Z,7.90
2023-02-06T23:51:54.449Z,7.85
2023-02-06T23:54:21.277Z,7.32
2023-02-06T23:56:48.035Z,8.20
2023-02-06T23:59:14.888Z,7.85
